createdAt,value
2023-04-27T00:01:03.321Z,10.38
2023-04-27T00:03:34.148Z,10.40
2023-04-27T00:06:05.087Z,10.42
2023-04-27T00:08:36.030Z,10.42
2023-04-27T00:11:07.212Z,10.43
2023-04-27T00:13:37.979Z,10.42
2023-04-27T00:16:09.114Z,10.43
2023-04-27T00:18:39.966Z,10.46
2023-04-27T00:21:11.487Z,10.44
2023-04-27T00:23:42.301Z,10.48
2023-04-27T00:26:13.120Z,10.47
2023-04-27T00:28:43.852Z,10.46
2023-04-27T00:31:14.708Z,10.44
2023-04-27T00:33:45.389Z,10.38
2023-04-27T00:36:16.151Z,10.36
2023-04-27T00:38:46.931Z,10.34
2023-04-27T00:41:17.785Z,10.34
2023-04-27T00:43:48.331Z,10.33
2023-04-27T00:46:19.994Z,10.33
2023-04-27T00:48:50.714Z,10.35
2023-04-27T00:51:21.619Z,10.35
2023-04-27T00:53:52.384Z,10.34
2023-04-27T00:56:23.222Z,10.31
2023-04-27T00:58:54.085Z,10.30
2023-04-27T01:01:25.305Z,10.30
2023-04-27T01:03:56.245Z,10.29
2023-04-27T01:06:28.409Z,10.28
2023-04-27T01:08:59.172Z,10.28
2023-04-27T01:11:29.991Z,10.29
2023-04-27T01:14:02.757Z,10.24
2023-04-27T01:16:33.551Z,10.19
2023-04-27T01:19:05.119Z,10.17
2023-04-27T01:21:35.900Z,10.18
2023-04-27T01:24:07.418Z,10.21
2023-04-27T01:26:38.217Z,10.23
2023-04-27T01:29:08.994Z,10.28
2023-04-27T01:31:40.051Z,10.29
2023-04-27T01:34:10.912Z,10.31
2023-04-27T01:36:41.876Z,10.36
2023-04-27T01:39:12.944Z,10.36
2023-04-27T01:41:44.056Z,10.39
2023-04-27T01:44:14.872Z,10.42
2023-04-27T01:46:45.601Z,10.43
2023-04-27T01:49:16.700Z,10.45
2023-04-27T01:51:47.725Z,10.45
2023-04-27T01:54:18.636Z,10.45
2023-04-27T01:56:49.382Z,10.50
2023-04-27T01:59:20.226Z,10.54
2023-04-27T02:01:51.114Z,10.56
2023-04-27T02:04:21.979Z,10.55
2023-04-27T02:06:52.907Z,10.57
2023-04-27T02:09:23.879Z,10.63
2023-04-27T02:11:54.637Z,10.67
2023-04-27T02:14:25.484Z,10.70
2023-04-27T02:16:56.319Z,10.72
2023-04-27T02:19:27.146Z,10.75
2023-04-27T02:21:57.867Z,10.75
2023-04-27T02:24:28.812Z,10.77
2023-04-27T02:26:59.576Z,10.78
2023-04-27T02:29:32.713Z,10.81
2023-04-27T02:32:03.974Z,10.85
2023-04-27T02:34:34.693Z,10.86
2023-04-27T02:37:05.498Z,10.88
2023-04-27T02:39:36.309Z,10.83
2023-04-27T02:42:07.213Z,10.79
2023-04-27T02:44:38.084Z,10.77
2023-04-27T02:47:08.989Z,10.82
2023-04-27T02:49:39.930Z,10.86
2023-04-27T02:52:10.882Z,10.84
2023-04-27T02:54:41.640Z,10.80
2023-04-27T02:57:12.439Z,10.80
2023-04-27T02:59:43.249Z,10.86
2023-04-27T03:02:14.114Z,10.94
2023-04-27T03:04:45.076Z,11.02
2023-04-27T03:07:15.936Z,11.07
2023-04-27T03:09:46.943Z,11.11
2023-04-27T03:12:17.855Z,11.13
2023-04-27T03:14:48.608Z,11.13
2023-04-27T03:17:19.257Z,11.08
2023-04-27T03:19:50.447Z,11.04
2023-04-27T03:22:21.185Z,11.03
2023-04-27T03:24:51.962Z,11.08
2023-04-27T03:27:23.062Z,11.16
2023-04-27T03:29:54.307Z,11.22
2023-04-27T03:32:25.073Z,11.22
2023-04-27T03:34:56.434Z,11.22
2023-04-27T03:37:27.230Z,11.16
2023-04-27T03:39:58.041Z,11.03
2023-04-27T03:42:29.621Z,10.92
2023-04-27T03:45:00.552Z,10.90
2023-04-27T03:47:31.413Z,10.87
2023-04-27T03:50:02.126Z,10.79
2023-04-27T03:52:32.863Z,10.67
2023-04-27T03:55:03.658Z,10.56
2023-04-27T03:57:34.494Z,10.55
2023-04-27T04:00:11.644Z,10.54
2023-04-27T04:02:42.600Z,10.51
2023-04-27T04:05:14.897Z,10.44
2023-04-27T04:07:45.964Z,10.33
2023-04-27T04:10:16.986Z,10.24
2023-04-27T04:12:47.787Z,10.19
2023-04-27T04:15:18.981Z,10.15
2023-04-27T04:17:49.935Z,10.08
2023-04-27T04:20:20.753Z,10.07
2023-04-27T04:22:51.695Z,10.13
2023-04-27T04:25:22.536Z,10.16
2023-04-27T04:27:53.438Z,10.20
2023-04-27T04:30:24.439Z,10.18
2023-04-27T04:32:55.435Z,10.15
2023-04-27T04:35:26.340Z,10.17
2023-04-27T04:37:57.242Z,10.20
2023-04-27T04:40:28.659Z,10.20
2023-04-27T04:42:59.625Z,10.21
2023-04-27T04:45:30.566Z,10.22
2023-04-27T04:48:02.274Z,10.23
2023-04-27T04:50:33.851Z,10.25
2023-04-27T04:53:07.190Z,10.29
2023-04-27T04:55:38.395Z,10.27
2023-04-27T04:58:12.653Z,10.29
2023-04-27T05:00:48.727Z,10.19
2023-04-27T05:03:19.825Z,10.11
2023-04-27T05:05:50.880Z,10.04
2023-04-27T05:08:21.909Z,10.08
2023-04-27T05:10:53.280Z,10.17
2023-04-27T05:13:25.532Z,10.19
2023-04-27T05:15:56.586Z,10.10
2023-04-27T05:18:27.733Z,10.06
2023-04-27T05:21:01.278Z,10.12
2023-04-27T05:23:34.081Z,10.15
2023-04-27T05:26:14.156Z,10.18
2023-04-27T05:28:45.363Z,10.17
2023-04-27T05:31:16.269Z,10.18
2023-04-27T05:33:47.139Z,10.21
2023-04-27T05:36:19.146Z,10.18
2023-04-27T05:38:49.972Z,10.11
2023-04-27T05:41:20.849Z,10.09
2023-04-27T05:43:51.761Z,10.04
2023-04-27T05:46:22.718Z,10.05
2023-04-27T05:48:53.610Z,10.07
2023-04-27T05:51:24.668Z,10.06
2023-04-27T05:53:57.620Z,10.05
2023-04-27T05:56:28.532Z,10.02
2023-04-27T05:59:01.747Z,10.04
2023-04-27T06:01:33.598Z,10.06
2023-04-27T06:04:04.901Z,10.06
2023-04-27T06:06:36.096Z,10.12
2023-04-27T06:09:07.243Z,10.17
2023-04-27T06:11:37.947Z,10.21
2023-04-27T06:14:08.768Z,10.19
2023-04-27T06:16:40.722Z,10.22
2023-04-27T06:19:11.649Z,10.25
2023-04-27T06:21:42.730Z,10.31
2023-04-27T06:24:13.469Z,10.31
2023-04-27T06:26:44.321Z,10.26
2023-04-27T06:29:15.485Z,10.17
2023-04-27T06:31:47.431Z,10.16
2023-04-27T06:34:18.348Z,10.21
2023-04-27T06:36:49.403Z,10.25
2023-04-27T06:39:20.390Z,10.29
2023-04-27T06:41:51.211Z,10.34
2023-04-27T06:44:22.078Z,10.37
2023-04-27T06:46:52.917Z,10.42
2023-04-27T06:49:23.880Z,10.49
2023-04-27T06:51:54.826Z,10.57
2023-04-27T06:54:25.870Z,10.69
2023-04-27T06:56:56.679Z,10.78
2023-04-27T06:59:27.615Z,10.90
2023-04-27T07:01:59.120Z,11.00
2023-04-27T07:04:30.544Z,11.13
2023-04-27T07:07:01.550Z,11.29
2023-04-27T07:09:32.959Z,11.43
2023-04-27T07:12:04.236Z,11.48
2023-04-27T07:14:35.196Z,11.46
2023-04-27T07:17:06.215Z,11.44
2023-04-27T07:19:37.267Z,11.46
2023-04-27T07:22:08.251Z,11.51
2023-04-27T07:24:39.048Z,11.57
2023-04-27T07:27:10.473Z,11.67
2023-04-27T07:29:41.370Z,11.68
2023-04-27T07:32:12.074Z,11.77
2023-04-27T07:34:52.766Z,11.83
2023-04-27T07:37:25.035Z,11.85
2023-04-27T07:39:55.836Z,11.83
2023-04-27T07:42:26.642Z,11.77
2023-04-27T07:44:57.370Z,11.71
2023-04-27T07:47:28.212Z,11.59
2023-04-27T07:49:59.136Z,11.56
2023-04-27T07:52:29.909Z,11.53
2023-04-27T07:55:00.703Z,11.55
2023-04-27T07:57:31.631Z,11.48
2023-04-27T08:00:02.422Z,11.47
2023-04-27T08:02:34.866Z,11.48
2023-04-27T08:05:06.471Z,11.53
2023-04-27T08:07:42.787Z,11.57
2023-04-27T08:10:16.002Z,11.57
2023-04-27T08:12:46.806Z,11.53
2023-04-27T08:15:17.668Z,11.51
2023-04-27T08:17:48.567Z,11.61
2023-04-27T08:20:19.513Z,11.65
2023-04-27T08:22:52.366Z,11.68
2023-04-27T08:25:23.312Z,11.70
2023-04-27T08:27:54.142Z,11.66
2023-04-27T08:30:25.195Z,11.65
2023-04-27T08:32:56.045Z,11.68
2023-04-27T08:35:26.813Z,11.65
2023-04-27T08:37:57.563Z,11.65
2023-04-27T08:40:28.422Z,11.66
2023-04-27T08:42:59.967Z,11.65
2023-04-27T08:45:30.898Z,11.69
2023-04-27T08:48:01.866Z,11.82
2023-04-27T08:50:32.708Z,11.86
2023-04-27T08:53:03.584Z,11.82
2023-04-27T08:55:34.374Z,11.78
2023-04-27T08:58:05.202Z,11.81
2023-04-27T09:00:41.864Z,11.85
2023-04-27T09:03:23.468Z,11.94
2023-04-27T09:06:04.735Z,12.14
2023-04-27T09:08:47.141Z,12.43
2023-04-27T09:11:18.331Z,12.58
2023-04-27T09:13:49.146Z,12.58
2023-04-27T09:16:24.145Z,12.63
2023-04-27T09:18:56.098Z,12.61
2023-04-27T09:21:28.001Z,12.59
2023-04-27T09:23:58.782Z,12.64
2023-04-27T09:26:31.655Z,12.73
2023-04-27T09:29:03.787Z,12.85
2023-04-27T09:31:34.804Z,12.98
2023-04-27T09:34:05.644Z,13.10
2023-04-27T09:36:36.479Z,13.19
2023-04-27T09:39:07.554Z,13.49
2023-04-27T09:41:38.610Z,13.72
2023-04-27T09:44:10.630Z,13.91
2023-04-27T09:46:41.567Z,14.23
2023-04-27T09:49:12.474Z,14.65
2023-04-27T09:51:43.346Z,15.18
2023-04-27T09:54:14.064Z,15.47
2023-04-27T09:56:48.063Z,15.70
2023-04-27T09:59:26.964Z,15.75
2023-04-27T10:02:00.071Z,15.93
2023-04-27T10:04:39.833Z,16.15
2023-04-27T10:07:12.896Z,16.25
2023-04-27T10:09:44.470Z,16.16
2023-04-27T10:12:19.095Z,16.12
2023-04-27T10:14:53.695Z,16.28
2023-04-27T10:17:30.797Z,16.43
2023-04-27T10:20:01.989Z,16.56
2023-04-27T10:22:42.478Z,16.86
2023-04-27T10:25:17.847Z,16.78
2023-04-27T10:27:52.953Z,16.87
2023-04-27T10:30:24.998Z,17.00
2023-04-27T10:32:56.928Z,16.96
2023-04-27T10:35:34.971Z,16.93
2023-04-27T10:38:09.735Z,17.03
2023-04-27T10:40:40.714Z,17.10
2023-04-27T10:43:12.048Z,17.33
2023-04-27T10:45:43.249Z,17.45
2023-04-27T10:48:15.882Z,17.59
2023-04-27T10:50:46.979Z,17.83
2023-04-27T10:53:17.925Z,18.23
2023-04-27T10:55:48.698Z,18.34
2023-04-27T10:58:23.818Z,18.58
2023-04-27T11:00:54.727Z,18.48
2023-04-27T11:03:25.989Z,18.28
2023-04-27T11:06:02.507Z,18.08
2023-04-27T11:08:34.404Z,18.17
2023-04-27T11:11:06.324Z,18.06
2023-04-27T11:13:37.236Z,18.00
2023-04-27T11:16:08.379Z,18.11
2023-04-27T11:18:39.600Z,18.48
2023-04-27T11:21:10.798Z,18.60
2023-04-27T11:23:41.736Z,18.53
2023-04-27T11:26:14.754Z,18.36
2023-04-27T11:28:45.847Z,18.23
2023-04-27T11:31:17.096Z,18.01
2023-04-27T11:33:51.930Z,17.80
2023-04-27T11:36:23.004Z,17.78
2023-04-27T11:38:53.994Z,17.86
2023-04-27T11:41:24.836Z,17.86
2023-04-27T11:43:55.551Z,17.45
2023-04-27T11:46:27.569Z,17.12
2023-04-27T11:49:04.991Z,17.10
2023-04-27T11:51:36.229Z,17.15
2023-04-27T11:54:07.380Z,17.01
2023-04-27T11:56:38.552Z,16.75
2023-04-27T11:59:18.984Z,16.46
2023-04-27T12:01:49.868Z,16.34
2023-04-27T12:04:21.173Z,16.10
2023-04-27T12:06:52.455Z,15.92
2023-04-27T12:09:23.193Z,15.83
2023-04-27T12:11:54.992Z,15.94
2023-04-27T12:14:26.115Z,16.19
2023-04-27T12:16:56.929Z,16.40
2023-04-27T12:19:28.233Z,16.59
2023-04-27T12:21:59.395Z,16.76
2023-04-27T12:24:30.280Z,16.82
2023-04-27T12:27:01.523Z,16.86
2023-04-27T12:29:32.998Z,16.94
2023-04-27T12:32:03.806Z,17.03
2023-04-27T12:34:34.781Z,17.02
2023-04-27T12:37:05.829Z,16.96
2023-04-27T12:39:38.644Z,16.83
2023-04-27T12:42:09.449Z,16.62
2023-04-27T12:44:40.276Z,16.49
2023-04-27T12:47:13.581Z,16.50
2023-04-27T12:49:51.383Z,16.54
2023-04-27T12:52:22.139Z,16.49
2023-04-27T12:54:57.888Z,16.26
2023-04-27T12:57:28.786Z,16.06
2023-04-27T13:00:01.583Z,16.02
2023-04-27T13:02:33.237Z,15.97
2023-04-27T13:05:07.990Z,15.90
2023-04-27T13:07:38.840Z,15.93
2023-04-27T13:10:11.748Z,16.02
2023-04-27T13:12:42.541Z,16.07
2023-04-27T13:15:13.588Z,16.06
2023-04-27T13:17:44.530Z,15.99
2023-04-27T13:20:16.006Z,15.88
2023-04-27T13:22:46.922Z,15.85
2023-04-27T13:25:17.856Z,15.76
2023-04-27T13:27:48.698Z,15.62
2023-04-27T13:30:19.396Z,15.55
2023-04-27T13:32:50.343Z,15.56
2023-04-27T13:35:21.357Z,15.66
2023-04-27T13:37:53.970Z,15.80
2023-04-27T13:40:24.864Z,15.93
2023-04-27T13:42:55.692Z,16.06
2023-04-27T13:45:27.065Z,16.16
2023-04-27T13:47:58.129Z,16.22
2023-04-27T13:50:29.086Z,16.26
2023-04-27T13:52:59.788Z,16.27
2023-04-27T13:55:30.875Z,16.27
2023-04-27T13:58:01.641Z,16.24
2023-04-27T14:00:33.752Z,16.13
2023-04-27T14:03:05.120Z,16.07
2023-04-27T14:05:36.243Z,16.00
2023-04-27T14:08:07.246Z,15.89
2023-04-27T14:10:38.769Z,15.74
2023-04-27T14:13:09.576Z,15.49
2023-04-27T14:15:40.337Z,15.25
2023-04-27T14:18:13.848Z,14.97
2023-04-27T14:20:45.568Z,14.72
2023-04-27T14:23:16.324Z,14.65
2023-04-27T14:25:47.071Z,14.60
2023-04-27T14:28:17.754Z,14.57
2023-04-27T14:30:48.467Z,14.40
2023-04-27T14:33:19.171Z,14.33
2023-04-27T14:35:50.083Z,14.36
2023-04-27T14:38:20.863Z,14.40
2023-04-27T14:40:51.566Z,14.50
2023-04-27T14:43:22.433Z,14.66
2023-04-27T14:45:59.365Z,14.76
2023-04-27T14:48:35.845Z,14.87
2023-04-27T14:51:07.125Z,14.89
2023-04-27T14:53:37.985Z,14.89
2023-04-27T14:56:08.894Z,14.91
2023-04-27T14:58:39.918Z,14.94
2023-04-27T15:01:10.924Z,15.01
2023-04-27T15:03:42.139Z,15.11
2023-04-27T15:06:14.061Z,15.25
2023-04-27T15:08:44.929Z,15.37
2023-04-27T15:11:15.952Z,15.47
2023-04-27T15:13:47.058Z,15.56
2023-04-27T15:16:18.131Z,15.64
2023-04-27T15:18:48.851Z,15.70
2023-04-27T15:21:19.595Z,15.72
2023-04-27T15:23:50.412Z,15.77
2023-04-27T15:26:21.233Z,15.82
2023-04-27T15:28:52.041Z,15.88
2023-04-27T15:31:22.921Z,15.95
2023-04-27T15:33:54.799Z,15.99
2023-04-27T15:36:26.911Z,16.02
2023-04-27T15:38:57.825Z,16.00
2023-04-27T15:41:28.838Z,16.02
2023-04-27T15:43:59.603Z,16.04
2023-04-27T15:46:30.450Z,15.86
2023-04-27T15:49:01.288Z,15.65
2023-04-27T15:51:32.488Z,15.53
2023-04-27T15:54:03.349Z,15.47
2023-04-27T15:56:34.199Z,15.44
2023-04-27T15:59:05.033Z,15.43
2023-04-27T16:01:36.649Z,15.35
2023-04-27T16:04:07.757Z,15.29
2023-04-27T16:06:39.289Z,15.28
2023-04-27T16:09:11.755Z,15.30
2023-04-27T16:11:43.604Z,15.21
2023-04-27T16:14:14.476Z,15.12
2023-04-27T16:16:46.247Z,15.11
2023-04-27T16:19:19.092Z,15.06
2023-04-27T16:21:50.068Z,14.91
2023-04-27T16:24:20.880Z,14.77
2023-04-27T16:26:51.691Z,14.61
2023-04-27T16:29:22.617Z,14.43
2023-04-27T16:31:53.556Z,14.33
2023-04-27T16:34:24.506Z,14.27
2023-04-27T16:36:55.503Z,14.15
2023-04-27T16:39:26.220Z,13.98
2023-04-27T16:41:57.051Z,13.92
2023-04-27T16:44:27.914Z,13.88
2023-04-27T16:46:58.751Z,13.78
2023-04-27T16:49:29.553Z,13.68
2023-04-27T16:52:00.417Z,13.64
2023-04-27T16:54:31.276Z,13.57
2023-04-27T16:57:02.244Z,13.55
2023-04-27T16:59:33.388Z,13.56
2023-04-27T17:02:23.209Z,13.51
2023-04-27T17:04:55.330Z,13.43
2023-04-27T17:07:28.688Z,13.42
2023-04-27T17:09:59.861Z,13.43
2023-04-27T17:12:30.662Z,13.44
2023-04-27T17:15:01.550Z,13.44
2023-04-27T17:17:33.996Z,13.42
2023-04-27T17:20:06.548Z,13.40
2023-04-27T17:22:37.462Z,13.41
2023-04-27T17:25:09.420Z,13.47
2023-04-27T17:27:41.000Z,13.50
2023-04-27T17:30:12.426Z,13.52
2023-04-27T17:32:43.387Z,13.51
2023-04-27T17:35:14.147Z,13.53
2023-04-27T17:37:45.096Z,13.53
2023-04-27T17:40:20.376Z,13.49
2023-04-27T17:42:51.606Z,13.49
2023-04-27T17:45:22.560Z,13.48
2023-04-27T17:47:53.578Z,13.46
2023-04-27T17:50:25.765Z,13.45
2023-04-27T17:53:00.165Z,13.39
2023-04-27T17:55:31.447Z,13.29
2023-04-27T17:58:04.135Z,13.14
2023-04-27T18:00:35.811Z,12.96
2023-04-27T18:03:06.909Z,12.82
2023-04-27T18:05:38.000Z,12.74
2023-04-27T18:08:08.976Z,12.63
2023-04-27T18:10:39.953Z,12.55
2023-04-27T18:13:10.949Z,12.54
2023-04-27T18:15:41.895Z,12.55
2023-04-27T18:18:16.955Z,12.50
2023-04-27T18:20:47.978Z,12.49
2023-04-27T18:23:18.892Z,12.46
2023-04-27T18:25:55.426Z,12.42
2023-04-27T18:28:26.304Z,12.38
2023-04-27T18:30:57.134Z,12.35
2023-04-27T18:33:27.880Z,12.33
2023-04-27T18:35:58.951Z,12.32
2023-04-27T18:38:29.600Z,12.33
2023-04-27T18:41:00.490Z,12.33
2023-04-27T18:43:31.302Z,12.34
2023-04-27T18:46:02.521Z,12.34
2023-04-27T18:48:33.513Z,12.36
2023-04-27T18:51:04.493Z,12.39
2023-04-27T18:53:35.518Z,12.42
2023-04-27T18:56:07.173Z,12.44
2023-04-27T18:58:39.124Z,12.48
2023-04-27T19:01:16.404Z,12.52
2023-04-27T19:03:47.257Z,12.57
2023-04-27T19:06:21.331Z,12.59
2023-04-27T19:08:55.010Z,12.61
2023-04-27T19:11:26.153Z,12.63
2023-04-27T19:14:00.306Z,12.70
2023-04-27T19:16:31.337Z,12.76
2023-04-27T19:19:02.137Z,12.78
2023-04-27T19:21:33.013Z,12.73
2023-04-27T19:24:03.953Z,12.65
2023-04-27T19:26:34.849Z,12.58
2023-04-27T19:29:05.831Z,12.50
2023-04-27T19:31:36.597Z,12.41
2023-04-27T19:34:07.451Z,12.29
2023-04-27T19:36:39.787Z,12.25
2023-04-27T19:39:11.430Z,12.22
2023-04-27T19:41:42.200Z,12.17
2023-04-27T19:44:13.159Z,12.13
2023-04-27T19:46:44.492Z,12.08
2023-04-27T19:49:16.026Z,11.95
2023-04-27T19:51:46.850Z,11.82
2023-04-27T19:54:18.409Z,11.71
2023-04-27T19:56:49.295Z,11.61
2023-04-27T19:59:20.134Z,11.57
2023-04-27T20:01:50.943Z,11.55
2023-04-27T20:04:22.303Z,11.49
2023-04-27T20:06:53.576Z,11.37
2023-04-27T20:09:24.365Z,11.29
2023-04-27T20:11:55.914Z,11.27
2023-04-27T20:14:29.100Z,11.27
2023-04-27T20:16:59.993Z,11.25
2023-04-27T20:19:31.171Z,11.20
2023-04-27T20:22:03.007Z,11.18
2023-04-27T20:24:34.747Z,11.17
2023-04-27T20:27:06.384Z,11.14
2023-04-27T20:29:37.471Z,11.11
2023-04-27T20:32:08.281Z,11.08
2023-04-27T20:34:39.224Z,11.07
2023-04-27T20:37:10.750Z,11.05
2023-04-27T20:39:41.657Z,11.04
2023-04-27T20:42:13.184Z,11.03
2023-04-27T20:44:46.553Z,11.03
2023-04-27T20:47:17.480Z,11.04
2023-04-27T20:49:48.291Z,11.07
2023-04-27T20:52:19.101Z,11.08
2023-04-27T20:54:50.385Z,11.05
2023-04-27T20:57:21.234Z,11.02
2023-04-27T20:59:51.973Z,11.02
2023-04-27T21:02:23.012Z,11.04
2023-04-27T21:04:53.847Z,11.05
2023-04-27T21:07:24.695Z,11.05
2023-04-27T21:09:55.976Z,11.05
2023-04-27T21:12:26.847Z,11.02
2023-04-27T21:14:57.705Z,10.97
2023-04-27T21:17:28.546Z,10.91
2023-04-27T21:19:59.524Z,10.86
2023-04-27T21:22:30.434Z,10.83
2023-04-27T21:25:01.400Z,10.79
2023-04-27T21:27:32.249Z,10.76
2023-04-27T21:30:03.110Z,10.76
2023-04-27T21:32:34.052Z,10.77
2023-04-27T21:35:05.062Z,10.77
2023-04-27T21:37:35.985Z,10.76
2023-04-27T21:40:08.081Z,10.76
2023-04-27T21:42:38.831Z,10.74
2023-04-27T21:45:11.127Z,10.73
2023-04-27T21:47:41.937Z,10.73
2023-04-27T21:50:13.042Z,10.73
2023-04-27T21:52:43.921Z,10.72
2023-04-27T21:55:14.817Z,10.72
2023-04-27T21:57:45.645Z,10.70
2023-04-27T22:00:18.368Z,10.68
2023-04-27T22:02:49.911Z,10.68
2023-04-27T22:05:21.196Z,10.65
2023-04-27T22:07:52.012Z,10.65
2023-04-27T22:10:22.796Z,10.66
2023-04-27T22:12:53.608Z,10.68
2023-04-27T22:15:24.626Z,10.69
2023-04-27T22:17:56.020Z,10.68
2023-04-27T22:20:26.789Z,10.66
2023-04-27T22:22:57.677Z,10.66
2023-04-27T22:25:28.471Z,10.63
2023-04-27T22:27:59.185Z,10.60
2023-04-27T22:30:30.030Z,10.58
2023-04-27T22:33:00.886Z,10.56
2023-04-27T22:35:31.702Z,10.56
2023-04-27T22:38:02.398Z,10.54
2023-04-27T22:40:33.330Z,10.53
2023-04-27T22:43:04.199Z,10.51
2023-04-27T22:45:36.705Z,10.50
2023-04-27T22:48:09.789Z,10.48
2023-04-27T22:50:40.559Z,10.46
2023-04-27T22:53:11.339Z,10.45
2023-04-27T22:55:42.150Z,10.42
2023-04-27T22:58:12.886Z,10.41
2023-04-27T23:00:43.733Z,10.40
2023-04-27T23:03:14.688Z,10.41
2023-04-27T23:05:45.895Z,10.41
2023-04-27T23:08:17.155Z,10.39
2023-04-27T23:10:47.970Z,10.38
2023-04-27T23:13:18.937Z,10.35
2023-04-27T23:15:49.641Z,10.36
2023-04-27T23:18:20.356Z,10.40
2023-04-27T23:20:55.691Z,10.41
2023-04-27T23:23:26.633Z,10.42
2023-04-27T23:25:57.612Z,10.45
2023-04-27T23:28:28.285Z,10.47
2023-04-27T23:30:59.115Z,10.48
2023-04-27T23:33:29.852Z,10.51
2023-04-27T23:36:00.638Z,10.54
2023-04-27T23:38:31.404Z,10.58
2023-04-27T23:41:02.250Z,10.59
2023-04-27T23:43:32.991Z,10.60
2023-04-27T23:46:03.820Z,10.61
2023-04-27T23:48:34.533Z,10.63
2023-04-27T23:51:06.153Z,10.65
2023-04-27T23:53:36.890Z,10.64
2023-04-27T23:56:08.348Z,10.64
2023-04-27T23:58:39.109Z,10.65
